Time;durP1;ratioP1;P1;durP2;ratioP2;P2;SDS_P1;SDS_P2;PMS_P1;PMS_P2;Temp;Humidity;BMP_temperature;BMP_pressure;BME280_temperature;BME280_humidity;BME280_pressure;Samples;Min_cycle;Max_cycle;Signal;HPM_P1;HPM_P2
2023/08/27 00:00:29;;;;;;;20.05;19.13;;;;;;;-141.02;79.21;41319.69;5093996;28;20251;-66
2023/08/27 00:02:56;;;;;;;20.50;19.50;;;;;;;-141.02;79.06;41358.06;5093868;28;20576;-63
2023/08/27 00:05:23;;;;;;;19.65;18.75;;;;;;;-141.02;79.18;41350.38;5093884;28;20293;-66
2023/08/27 00:08:11;;;;;;;20.10;19.20;;;;;;;-141.02;79.16;41358.06;5093788;28;20746;-65
2023/08/27 00:10:38;;;;;;;20.20;19.30;;;;;;;-141.02;79.21;41381.09;5093761;28;20285;-64
2023/08/27 00:13:05;;;;;;;20.02;19.13;;;;;;;-141.02;78.81;41398.34;5093636;28;20660;-65
2023/08/27 00:15:34;;;;;;;19.95;19.05;;;;;;;-141.02;78.86;41392.59;5093675;28;20285;-66
2023/08/27 00:18:01;;;;;;;20.35;19.35;;;;;;;-141.02;78.74;41386.84;5093587;28;20758;-63
2023/08/27 00:20:28;;;;;;;19.88;18.98;;;;;;;-141.02;78.54;41383.00;5094050;28;20224;-57
2023/08/27 00:22:55;;;;;;;20.10;19.13;;;;;;;-141.02;78.47;41377.25;5094088;28;20276;-61
2023/08/27 00:25:22;;;;;;;19.80;18.90;;;;;;;-141.02;78.41;41396.44;5093774;28;20204;-64
2023/08/27 00:27:48;;;;;;;20.02;19.13;;;;;;;-141.02;78.48;41425.22;5093400;28;20193;-65
2023/08/27 00:30:16;;;;;;;20.23;19.33;;;;;;;-141.02;78.51;41427.13;5093366;28;20684;-63
2023/08/27 00:32:44;;;;;;;20.40;19.50;;;;;;;-141.02;78.52;41446.31;5093342;28;20243;-59
2023/08/27 00:35:11;;;;;;;20.35;19.35;;;;;;;-141.02;78.91;41438.66;5093200;28;20321;-67
2023/08/27 00:37:38;;;;;;;20.15;19.25;;;;;;;-141.02;78.88;41427.13;5093242;28;20573;-62
2023/08/27 00:40:06;;;;;;;19.65;18.75;;;;;;;-141.02;79.22;41400.28;5093236;28;20668;-62
2023/08/27 00:42:33;;;;;;;19.95;19.05;;;;;;;-141.02;79.39;41450.16;5093449;28;20209;-64
2023/08/27 00:45:00;;;;;;;20.00;19.10;;;;;;;-141.02;79.12;41423.28;5092801;28;20284;-62
2023/08/27 00:47:27;;;;;;;20.35;19.35;;;;;;;-141.02;79.76;41465.50;5092620;28;20189;-59
2023/08/27 00:49:56;;;;;;;20.17;19.27;;;;;;;-141.02;79.95;41475.09;5093275;28;20194;-64
2023/08/27 00:52:24;;;;;;;19.83;18.92;;;;;;;-141.02;79.93;41448.25;5092961;28;20639;-65
2023/08/27 00:54:53;;;;;;;19.67;18.77;;;;;;;-141.02;79.86;41454.00;5093049;28;20250;-66
2023/08/27 00:57:20;;;;;;;19.80;18.90;;;;;;;-141.02;79.58;41450.16;5092841;28;20702;-61
2023/08/27 00:59:48;;;;;;;19.58;18.67;;;;;;;-141.02;78.94;41473.19;5092764;28;20708;-61
2023/08/27 01:02:16;;;;;;;18.00;17.20;;;;;;;-141.02;78.71;41469.34;5092772;28;20189;-63
2023/08/27 01:04:43;;;;;;;19.02;18.23;;;;;;;-141.02;78.92;41465.50;5093000;28;20193;-58
2023/08/27 01:07:20;;;;;;;19.30;18.40;;;;;;;-141.02;79.01;41484.72;5092952;28;20288;-62
2023/08/27 01:09:56;;;;;;;19.63;18.75;;;;;;;-141.02;79.10;41467.44;5092655;28;20276;-65
2023/08/27 01:12:34;;;;;;;19.65;18.75;;;;;;;-141.02;79.09;41488.53;5092585;28;20671;-66
2023/08/27 01:15:04;;;;;;;19.20;18.40;;;;;;;-141.02;79.41;41496.22;5093081;28;20304;-66
2023/08/27 01:17:34;;;;;;;19.35;18.50;;;;;;;-141.02;79.77;41482.78;5092850;28;20245;-64
2023/08/27 01:20:01;;;;;;;19.17;18.30;;;;;;;-141.02;80.05;41469.34;5092729;28;20186;-66
2023/08/27 01:22:31;;;;;;;18.50;17.70;;;;;;;-141.02;80.43;41480.88;5092722;28;20271;-67
2023/08/27 01:24:57;;;;;;;19.35;18.48;;;;;;;-141.02;80.89;41480.88;5092651;28;20284;-62
2023/08/27 01:27:30;;;;;;;19.00;18.10;;;;;;;-141.02;81.33;41494.31;5092326;28;20203;-63
2023/08/27 01:30:09;;;;;;;19.40;18.50;;;;;;;-141.02;81.54;41511.56;5092403;28;20278;-65
2023/08/27 01:32:39;;;;;;;19.75;18.90;;;;;;;-141.02;81.72;41477.03;5092615;28;20217;-65
2023/08/27 01:35:09;;;;;;;18.95;18.15;;;;;;;-141.02;81.76;41465.50;5092195;28;20693;-66
2023/08/27 01:38:11;;;;;;;;;;;;;;;;;;;;;
2023/08/27 01:40:43;;;;;;;18.75;17.95;;;;;;;-141.02;82.03;41477.03;5092484;28;20196;-59
2023/08/27 01:43:10;;;;;;;19.10;18.30;;;;;;;-141.02;82.37;41496.22;5092465;28;20615;-60
2023/08/27 01:45:37;;;;;;;19.20;18.40;;;;;;;-141.02;82.73;41477.03;5092044;28;20198;-63
2023/08/27 01:48:05;;;;;;;19.02;18.23;;;;;;;-141.02;82.85;41500.06;5092466;28;20193;-65
2023/08/27 01:50:32;;;;;;;18.98;18.17;;;;;;;-141.02;82.94;41494.31;5092352;28;20216;-64
2023/08/27 01:53:02;;;;;;;18.77;17.98;;;;;;;-141.02;83.20;41482.78;5092410;28;20604;-65
2023/08/27 01:55:29;;;;;;;19.15;18.35;;;;;;;-141.02;83.57;41498.13;5091992;28;20703;-67
2023/08/27 01:57:56;;;;;;;18.88;18.08;;;;;;;-141.02;83.94;41494.31;5097087;28;20189;-65
2023/08/27 02:00:24;;;;;;;18.52;17.73;;;;;;;-141.02;83.99;41496.22;5098738;28;20283;-57
2023/08/27 02:02:51;;;;;;;18.92;18.13;;;;;;;-141.02;84.25;41530.75;5098963;28;20585;-58
2023/08/27 02:05:18;;;;;;;19.23;18.42;;;;;;;-141.02;84.80;41498.13;5098671;28;20203;-60
2023/08/27 02:07:55;;;;;;;18.92;18.13;;;;;;;-141.02;85.33;41484.72;5098954;28;20281;-63
2023/08/27 02:10:24;;;;;;;19.00;18.20;;;;;;;-141.02;85.54;41505.81;5098607;28;20300;-64
2023/08/27 02:12:51;;;;;;;18.65;17.85;;;;;;;-141.02;85.59;41505.81;5098620;28;20193;-63
2023/08/27 02:15:18;;;;;;;18.83;18.02;;;;;;;-141.02;86.13;41477.03;5098787;28;20225;-59
2023/08/27 02:17:45;;;;;;;18.88;18.08;;;;;;;-141.02;86.48;41507.72;5099167;28;20198;-63
2023/08/27 02:23:45;;;;;;;18.92;18.13;;;;;;;-141.02;87.96;41503.91;5098597;28;20197;-63
2023/08/27 02:26:13;;;;;;;18.70;17.90;;;;;;;-141.02;88.40;41465.50;5098779;28;20276;-64
2023/08/27 02:28:40;;;;;;;18.75;17.95;;;;;;;-141.02;88.55;41469.34;5098408;28;20284;-61
2023/08/27 02:31:08;;;;;;;18.83;18.02;;;;;;;-141.02;89.95;41446.31;5098746;28;20190;-60
2023/08/27 02:33:35;;;;;;;18.75;17.95;;;;;;;-141.02;91.59;41450.16;5098287;28;20233;-60
2023/08/27 02:36:02;;;;;;;18.63;17.83;;;;;;;-141.02;93.94;41411.78;5098744;28;20273;-62
2023/08/27 02:38:29;;;;;;;18.15;17.35;;;;;;;-141.02;96.36;41379.16;5098379;28;20190;-64
2023/08/27 02:40:56;;;;;;;17.60;16.90;;;;;;;-141.02;96.66;41346.53;5098308;28;20284;-62
2023/08/27 02:43:24;;;;;;;17.67;16.98;;;;;;;-141.02;96.92;41346.53;5098313;28;20225;-58
2023/08/27 02:45:51;;;;;;;16.55;15.85;;;;;;;-141.02;96.98;41350.38;5098545;28;20193;-66
2023/08/27 02:48:18;;;;;;;17.42;16.73;;;;;;;-141.02;98.75;41298.56;5098610;28;20272;-61
2023/08/27 02:50:45;;;;;;;16.83;16.23;;;;;;;-141.02;98.81;41275.53;5098258;28;20194;-57
2023/08/27 02:53:12;;;;;;;17.05;16.42;;;;;;;-141.02;100.00;41206.47;5098555;28;20244;-59
2023/08/27 02:55:39;;;;;;;16.45;15.85;;;;;;;-141.02;100.00;41104.78;5098460;28;20294;-63
2023/08/27 02:58:06;;;;;;;16.48;15.88;;;;;;;-141.02;100.00;41060.63;5098186;28;20194;-62
2023/08/27 03:00:34;;;;;;;16.38;15.77;;;;;;;-141.02;100.00;40976.22;5098160;28;20229;-66
2023/08/27 03:03:01;;;;;;;16.38;15.77;;;;;;;-141.02;100.00;40930.16;5098169;28;20194;-59
2023/08/27 03:05:28;;;;;;;16.45;15.85;;;;;;;-141.02;100.00;40882.19;5098358;28;20233;-63
2023/08/27 03:07:56;;;;;;;16.45;15.85;;;;;;;-141.02;100.00;40809.28;5097923;28;20293;-65
2023/08/27 03:10:23;;;;;;;16.20;15.60;;;;;;;-141.02;100.00;40786.28;5094499;28;20248;-62
2023/08/27 03:13:20;;;;;;;16.50;15.90;;;;;;;-141.02;100.00;40763.25;5094858;28;20233;-61
2023/08/27 03:15:48;;;;;;;16.63;16.02;;;;;;;-141.02;100.00;40699.94;5094704;28;20316;-61
2023/08/27 03:18:16;;;;;;;16.38;15.77;;;;;;;-141.02;100.00;40602.09;5095109;28;20297;-61
2023/08/27 03:20:43;;;;;;;16.15;15.55;;;;;;;-141.02;100.00;40479.31;5095111;28;20198;-65
2023/08/27 03:23:10;;;;;;;15.68;15.07;;;;;;;-141.02;100.00;40310.50;5094970;28;20383;-61
2023/08/27 03:25:37;;;;;;;15.05;14.55;;;;;;;-141.02;100.00;40103.31;5094922;28;20197;-60
2023/08/27 03:28:04;;;;;;;14.85;14.35;;;;;;;-141.02;100.00;39999.75;5094875;28;20193;-65
2023/08/27 03:30:31;;;;;;;14.48;13.98;;;;;;;-141.02;100.00;39800.25;5094515;28;20200;-61
2023/08/27 03:33:00;;;;;;;14.07;13.68;;;;;;;-141.02;100.00;39696.69;5094858;28;20664;-62
2023/08/27 03:35:27;;;;;;;14.05;13.65;;;;;;;-141.02;100.00;39706.28;5094420;28;20287;-64
2023/08/27 03:37:54;;;;;;;13.90;13.50;;;;;;;-141.02;100.00;39736.97;5094383;28;20729;-65
2023/08/27 03:40:21;;;;;;;13.35;12.95;;;;;;;-141.02;100.00;39771.50;5094680;28;20251;-60
2023/08/27 03:42:48;;;;;;;13.30;12.90;;;;;;;-141.02;100.00;39800.25;5094274;28;20277;-63
2023/08/27 03:45:15;;;;;;;13.32;12.93;;;;;;;-141.02;100.00;39813.69;5094296;28;20251;-63
2023/08/27 03:47:42;;;;;;;13.60;13.20;;;;;;;-141.02;100.00;39853.97;5094496;28;20280;-65
2023/08/27 03:50:11;;;;;;;13.70;13.30;;;;;;;-141.02;100.00;39878.91;5094507;28;20274;-58
2023/08/27 03:52:39;;;;;;;13.15;12.75;;;;;;;-141.02;100.00;39903.84;5094865;28;20201;-63
2023/08/27 03:55:06;;;;;;;12.90;12.50;;;;;;;-141.02;100.00;39926.84;5094051;28;20761;-61
2023/08/27 03:57:33;;;;;;;12.75;12.35;;;;;;;-141.02;100.00;39965.22;5094049;28;20197;-62
2023/08/27 04:00:00;;;;;;;12.70;12.30;;;;;;;-141.02;100.00;39995.91;5094011;28;20287;-59
2023/08/27 04:02:27;;;;;;;12.52;12.13;;;;;;;-141.02;100.00;40055.38;5093933;28;20645;-66
2023/08/27 04:04:54;;;;;;;12.60;12.20;;;;;;;-141.02;100.00;40059.22;5094200;28;20221;-62
2023/08/27 04:07:23;;;;;;;12.30;11.90;;;;;;;-141.02;100.00;40072.63;5093851;28;20201;-63
2023/08/27 04:09:50;;;;;;;12.20;11.80;;;;;;;-141.02;100.00;40199.22;5093771;28;20205;-59
2023/08/27 04:12:17;;;;;;;12.60;12.20;;;;;;;-141.02;100.00;40394.91;5093753;28;20656;-66
2023/08/27 04:14:44;;;;;;;12.68;12.27;;;;;;;-141.02;100.00;40536.88;5093621;28;20320;-60
2023/08/27 04:17:11;;;;;;;13.30;12.90;;;;;;;-141.02;100.00;40594.41;5093667;28;20240;-64
2023/08/27 04:19:38;;;;;;;13.30;12.90;;;;;;;-141.02;100.00;40699.94;5093738;28;20216;-58
2023/08/27 04:22:05;;;;;;;14.05;13.65;;;;;;;-141.02;100.00;40797.78;5093550;28;20656;-64
2023/08/27 04:24:34;;;;;;;14.75;14.25;;;;;;;-141.02;100.00;40832.31;5093464;28;20641;-65
2023/08/27 04:27:01;;;;;;;14.95;14.45;;;;;;;-141.02;100.00;40924.41;5093417;28;20229;-65
2023/08/27 04:29:28;;;;;;;15.65;15.15;;;;;;;-141.02;100.00;40974.28;5093654;28;20211;-62
2023/08/27 04:31:55;;;;;;;15.75;15.25;;;;;;;-141.02;100.00;41041.44;5093392;28;20716;-62
2023/08/27 04:34:22;;;;;;;16.15;15.55;;;;;;;-141.02;100.00;41110.53;5093189;28;20205;-63
2023/08/27 04:36:49;;;;;;;16.42;15.82;;;;;;;-141.02;100.00;41191.13;5093589;28;20219;-66
2023/08/27 04:39:16;;;;;;;16.75;16.15;;;;;;;-141.02;100.00;41206.47;5093515;28;20205;-65
2023/08/27 04:41:44;;;;;;;17.13;16.42;;;;;;;-141.02;100.00;41269.78;5093108;28;20240;-63
2023/08/27 04:44:11;;;;;;;16.88;16.27;;;;;;;-141.02;100.00;41358.06;5093411;28;20270;-62
2023/08/27 04:46:38;;;;;;;17.73;17.02;;;;;;;-141.02;99.69;41396.44;5093049;28;20297;-64
2023/08/27 04:49:05;;;;;;;17.23;16.52;;;;;;;-141.02;97.91;41432.91;5093026;28;20285;-66
2023/08/27 04:51:32;;;;;;;18.42;17.73;;;;;;;-141.02;97.81;41477.03;5093201;28;20285;-61
2023/08/27 04:53:59;;;;;;;17.88;17.17;;;;;;;-141.02;96.42;41538.44;5093164;28;20668;-65
2023/08/27 04:56:26;;;;;;;17.85;17.15;;;;;;;-141.02;96.34;41534.59;5093089;28;20312;-58
2023/08/27 04:58:55;;;;;;;18.27;17.58;;;;;;;-141.02;96.32;41515.41;5092960;28;20221;-65
2023/08/27 05:01:22;;;;;;;18.17;17.48;;;;;;;-141.02;94.90;41588.34;5093149;28;20649;-66
2023/08/27 05:03:48;;;;;;;18.63;17.92;;;;;;;-141.02;92.98;41626.72;5092744;28;20193;-58
2023/08/27 05:06:15;;;;;;;18.60;17.80;;;;;;;-141.02;91.12;41601.75;5093026;28;20296;-63
2023/08/27 05:08:42;;;;;;;19.13;18.33;;;;;;;-141.02;89.63;41569.13;5092628;28;20289;-61
2023/08/27 05:11:09;;;;;;;19.95;19.10;;;;;;;-141.02;88.25;41553.78;5092924;28;20194;-59
2023/08/27 05:13:38;;;;;;;19.10;18.30;;;;;;;-141.02;87.70;41574.91;5092580;28;20574;-65
2023/08/27 05:16:06;;;;;;;19.33;18.52;;;;;;;-141.02;87.87;41659.34;5092538;28;20246;-62
2023/08/27 05:18:33;;;;;;;18.92;18.13;;;;;;;-141.02;87.00;41645.91;5092528;28;20289;-61
2023/08/27 05:21:00;;;;;;;19.13;18.33;;;;;;;-141.02;85.97;41745.69;5092493;28;20209;-64
2023/08/27 05:23:27;;;;;;;19.35;18.55;;;;;;;-141.02;84.51;41764.88;5092769;28;20190;-65
2023/08/27 05:25:54;;;;;;;19.20;18.30;;;;;;;-141.02;84.87;41707.31;5092403;28;20289;-60
2023/08/27 05:28:21;;;;;;;19.85;18.95;;;;;;;-141.02;85.47;41596.00;5093172;28;20280;-65
2023/08/27 05:30:47;;;;;;;19.67;18.77;;;;;;;-141.02;85.86;41615.19;5092339;28;20284;-62
2023/08/27 05:33:15;;;;;;;18.92;18.13;;;;;;;-141.02;87.52;41580.66;5091756;28;20679;-59
2023/08/27 05:35:43;;;;;;;19.00;18.20;;;;;;;-141.02;88.15;41574.91;5092459;28;20233;-63
2023/08/27 05:38:10;;;;;;;19.20;18.40;;;;;;;-141.02;88.16;41661.25;5092524;28;20200;-64
2023/08/27 05:40:37;;;;;;;19.65;18.75;;;;;;;-141.02;88.20;41707.31;5092532;28;20231;-58
2023/08/27 05:43:04;;;;;;;19.75;18.85;;;;;;;-141.02;87.62;41782.16;5092274;28;20193;-64
2023/08/27 05:45:31;;;;;;;19.45;18.55;;;;;;;-141.02;87.85;41741.84;5092199;28;20201;-61
2023/08/27 05:47:58;;;;;;;19.45;18.65;;;;;;;-141.02;86.69;41772.56;5092441;28;20322;-61
2023/08/27 05:50:26;;;;;;;19.30;18.50;;;;;;;-141.02;86.61;41764.88;5092426;28;20221;-60
2023/08/27 05:52:53;;;;;;;19.35;18.55;;;;;;;-141.02;87.95;41757.22;5092037;28;20233;-62
2023/08/27 05:55:20;;;;;;;19.02;18.23;;;;;;;-141.02;88.60;41736.09;5091983;28;20668;-59
2023/08/27 05:57:47;;;;;;;18.88;18.08;;;;;;;-141.02;87.29;41803.28;5092028;28;20233;-63
2023/08/27 06:00:15;;;;;;;19.55;18.75;;;;;;;-141.02;86.27;41880.03;5091913;28;20321;-58
2023/08/27 06:02:42;;;;;;;19.58;18.77;;;;;;;-141.02;86.33;41929.94;5092234;28;20282;-62
2023/08/27 06:05:11;;;;;;;19.35;18.55;;;;;;;-141.02;85.31;41952.97;5091960;28;20202;-62
2023/08/27 06:07:39;;;;;;;18.48;17.67;;;;;;;-141.02;85.23;41956.81;5092231;28;20193;-61
2023/08/27 06:10:08;;;;;;;19.52;18.73;;;;;;;-141.02;84.95;41954.88;5091938;28;20246;-62
2023/08/27 06:12:35;;;;;;;17.40;16.70;;;;;;;-141.02;84.75;41893.47;5092209;28;20190;-64
2023/08/27 06:15:04;;;;;;;18.27;17.48;;;;;;;-141.02;84.66;41893.47;5092056;28;20301;-59
2023/08/27 06:17:31;;;;;;;18.25;17.45;;;;;;;-141.02;84.05;41964.47;5092177;28;20196;-63
2023/08/27 06:19:58;;;;;;;18.17;17.38;;;;;;;-141.02;84.27;41939.53;5091845;28;20194;-63
2023/08/27 06:22:25;;;;;;;19.40;18.60;;;;;;;-141.02;84.44;41964.47;5092165;28;20251;-64
2023/08/27 06:24:53;;;;;;;19.35;18.55;;;;;;;-141.02;83.74;41949.13;5092095;28;20202;-62
2023/08/27 06:27:20;;;;;;;19.45;18.65;;;;;;;-141.02;83.02;41962.56;5092069;28;20196;-62
2023/08/27 06:29:47;;;;;;;18.48;17.67;;;;;;;-141.02;84.73;41964.47;5091784;28;20292;-66
2023/08/27 06:32:16;;;;;;;18.63;17.83;;;;;;;-141.02;84.33;41956.81;5091737;28;20229;-66
2023/08/27 06:34:43;;;;;;;18.40;17.60;;;;;;;-141.02;83.71;41920.34;5091623;28;20202;-61
2023/08/27 06:37:10;;;;;;;18.73;17.92;;;;;;;-141.02;83.07;41935.69;5091929;28;20316;-66
2023/08/27 06:39:37;;;;;;;18.63;17.83;;;;;;;-141.02;83.05;41876.19;5091612;28;20237;-64
2023/08/27 06:42:06;;;;;;;19.30;18.50;;;;;;;-141.02;81.96;41870.44;5091662;28;20190;-62
2023/08/27 06:44:33;;;;;;;18.30;17.50;;;;;;;-141.02;81.33;41833.97;5093621;28;20277;-67
2023/08/27 06:47:00;;;;;;;19.27;18.48;;;;;;;-141.02;81.22;41891.56;5095714;28;20277;-62
2023/08/27 06:49:27;;;;;;;18.58;17.67;;;;;;;-141.02;80.42;41895.38;5095338;28;20225;-63
2023/08/27 06:51:54;;;;;;;19.58;18.67;;;;;;;-141.02;79.72;41880.03;5095673;28;20266;-65
2023/08/27 06:54:21;;;;;;;18.88;17.98;;;;;;;-141.02;79.19;41893.47;5095535;28;20222;-62
2023/08/27 06:56:47;;;;;;;19.30;18.40;;;;;;;-141.02;78.31;41903.06;5095119;28;20320;-59
2023/08/27 06:59:16;;;;;;;18.90;18.00;;;;;;;-141.02;77.17;41883.88;5095001;28;20737;-63
2023/08/27 07:01:43;;;;;;;19.48;18.58;;;;;;;-141.02;77.08;41949.13;5095525;28;20181;-62
2023/08/27 07:04:10;;;;;;;18.30;17.50;;;;;;;-141.02;76.74;41991.34;5095103;28;20236;-67
2023/08/27 07:06:37;;;;;;;18.90;18.08;;;;;;;-141.02;75.69;42041.25;5095051;28;20699;-65
2023/08/27 07:09:05;;;;;;;18.30;17.50;;;;;;;-141.02;75.09;42083.47;5094963;28;20747;-65
2023/08/27 07:11:33;;;;;;;18.27;17.48;;;;;;;-141.02;74.25;42139.13;5095294;28;20223;-64
2023/08/27 07:14:01;;;;;;;17.95;17.15;;;;;;;-141.02;74.02;42179.44;5095134;28;20189;-67
2023/08/27 07:16:29;;;;;;;18.38;17.58;;;;;;;-141.02;73.61;42179.44;5095112;28;20264;-66
2023/08/27 07:18:56;;;;;;;18.67;17.77;;;;;;;-141.02;72.97;42221.66;5095129;28;20637;-66
2023/08/27 07:21:23;;;;;;;18.60;17.80;;;;;;;-141.02;72.71;42225.50;5094689;28;20194;-63
2023/08/27 07:23:50;;;;;;;18.08;17.27;;;;;;;-141.02;71.84;42254.31;5094613;28;20189;-66
2023/08/27 07:26:17;;;;;;;18.83;17.92;;;;;;;-141.02;72.44;42313.81;5094644;28;20200;-64
2023/08/27 07:28:44;;;;;;;18.70;17.80;;;;;;;-141.02;71.21;42363.72;5094680;28;20652;-67
2023/08/27 07:31:12;;;;;;;18.80;17.90;;;;;;;-141.02;69.90;42352.19;5094650;28;20715;-66
2023/08/27 07:33:41;;;;;;;18.85;17.98;;;;;;;-141.02;69.81;42382.91;5094821;28;20198;-66
2023/08/27 07:36:08;;;;;;;19.25;18.35;;;;;;;-141.02;68.23;42469.28;5094405;28;20685;-61
2023/08/27 07:38:40;;;;;;;18.63;17.73;;;;;;;-141.02;67.23;42490.41;5094759;28;20200;-66
2023/08/27 07:41:07;;;;;;;18.73;17.83;;;;;;;-141.02;67.11;42542.22;5094461;28;20201;-66
2023/08/27 07:43:34;;;;;;;18.63;17.73;;;;;;;-141.02;67.88;42528.78;5094644;28;20194;-66
2023/08/27 07:46:01;;;;;;;18.52;17.63;;;;;;;-141.02;67.14;42574.88;5094565;28;20194;-65
2023/08/27 07:48:28;;;;;;;18.05;17.25;;;;;;;-141.02;67.08;42565.25;5094225;28;20197;-66
2023/08/27 07:50:57;;;;;;;18.23;17.33;;;;;;;-141.02;66.65;42582.53;5094483;28;20205;-65
2023/08/27 07:53:24;;;;;;;18.45;17.55;;;;;;;-141.02;65.83;42607.50;5094149;28;20202;-67
2023/08/27 07:55:51;;;;;;;17.95;17.15;;;;;;;-141.02;65.75;42595.97;5093861;28;20329;-63
2023/08/27 07:58:18;;;;;;;18.15;17.25;;;;;;;-141.02;65.90;42676.59;5094148;28;20552;-65
2023/08/27 08:00:45;;;;;;;18.27;17.38;;;;;;;-141.02;65.17;42636.28;5093838;28;20316;-64
2023/08/27 08:03:13;;;;;;;18.20;17.30;;;;;;;-141.02;64.31;42686.19;5094322;28;20225;-64
2023/08/27 08:05:40;;;;;;;18.30;17.40;;;;;;;-141.02;63.17;42782.19;5094171;28;20225;-66
2023/08/27 08:08:08;;;;;;;18.42;17.52;;;;;;;-141.02;63.34;42780.25;5093862;28;20216;-67
2023/08/27 08:10:35;;;;;;;18.20;17.30;;;;;;;-141.02;64.89;42730.34;5093800;28;20280;-64
2023/08/27 08:13:03;;;;;;;18.25;17.35;;;;;;;-141.02;63.12;42791.78;5092570;28;20215;-66
2023/08/27 08:15:30;;;;;;;18.60;17.60;;;;;;;-141.02;62.49;42837.84;5092783;28;20200;-63
2023/08/27 08:17:57;;;;;;;18.85;17.85;;;;;;;-141.02;61.49;42870.50;5093651;28;20247;-67
2023/08/27 08:20:24;;;;;;;18.75;17.75;;;;;;;-141.02;61.29;42899.28;5093863;28;20197;-66
2023/08/27 08:22:50;;;;;;;18.48;17.48;;;;;;;-141.02;61.08;42933.84;5093867;28;20225;-66
2023/08/27 08:25:19;;;;;;;18.27;17.30;;;;;;;-141.02;61.03;42912.72;5093774;28;20196;-67
2023/08/27 08:27:46;;;;;;;18.13;17.23;;;;;;;-141.02;59.85;42899.28;5094016;28;20200;-65
2023/08/27 08:30:13;;;;;;;18.15;17.25;;;;;;;-141.02;60.24;42941.53;5093733;28;20478;-62
2023/08/27 08:32:40;;;;;;;18.20;17.30;;;;;;;-141.02;59.17;43004.88;5093363;28;20284;-67
2023/08/27 08:35:08;;;;;;;18.17;17.27;;;;;;;-141.02;60.36;42930.00;5093817;28;20282;-66
2023/08/27 08:37:35;;;;;;;18.77;17.77;;;;;;;-141.02;58.60;43097.03;5093410;28;20225;-66
2023/08/27 08:40:02;;;;;;;18.52;17.63;;;;;;;-141.02;57.64;43116.22;5093531;28;20248;-66
2023/08/27 08:42:39;;;;;;;18.50;17.50;;;;;;;-141.02;57.35;43112.41;5093187;28;20640;-67
2023/08/27 08:45:11;;;;;;;18.40;17.40;;;;;;;-141.02;56.84;43158.47;5093680;28;20292;-66
2023/08/27 08:47:38;;;;;;;18.50;17.50;;;;;;;-141.02;56.77;43135.44;5093078;28;20668;-66
2023/08/27 08:50:08;;;;;;;18.60;17.60;;;;;;;-141.02;56.68;43100.88;5093427;28;20632;-65
2023/08/27 08:52:39;;;;;;;18.17;17.17;;;;;;;-141.02;55.61;43193.03;5092963;28;20194;-62
2023/08/27 08:55:09;;;;;;;17.85;16.85;;;;;;;-141.02;55.52;43254.47;5093324;28;20186;-66
2023/08/27 08:57:43;;;;;;;17.98;16.98;;;;;;;-141.02;54.85;43323.59;5093333;28;20213;-67
2023/08/27 09:00:12;;;;;;;18.15;17.25;;;;;;;-141.02;54.98;43221.81;5092738;28;20234;-66
2023/08/27 09:02:40;;;;;;;18.30;17.40;;;;;;;-141.02;54.02;43536.72;5092781;28;20731;-66
2023/08/27 09:05:10;;;;;;;17.95;17.05;;;;;;;-141.02;52.80;43421.50;5092840;28;20197;-66
2023/08/27 09:07:39;;;;;;;17.95;17.05;;;;;;;-141.02;53.05;43538.63;5092328;28;20193;-63
2023/08/27 09:10:09;;;;;;;18.30;17.40;;;;;;;-141.02;52.37;43352.38;5092656;28;20664;-63
2023/08/27 09:12:40;;;;;;;18.20;17.20;;;;;;;-141.02;52.96;43373.50;5093451;28;20282;-66
2023/08/27 09:15:09;;;;;;;18.92;17.92;;;;;;;-141.02;53.02;43404.22;5092630;28;20189;-58
2023/08/27 09:17:36;;;;;;;18.50;17.50;;;;;;;-141.02;52.33;43383.09;5092762;28;20780;-58
2023/08/27 09:20:03;;;;;;;18.40;17.40;;;;;;;-141.02;51.57;43463.75;5092573;28;20285;-61
2023/08/27 09:22:31;;;;;;;18.73;17.73;;;;;;;-141.02;51.03;43584.72;5092846;28;20198;-66
2023/08/27 09:24:58;;;;;;;18.92;17.92;;;;;;;-141.02;50.84;43477.19;5092653;28;20277;-61
2023/08/27 09:27:26;;;;;;;18.50;17.50;;;;;;;-141.02;51.72;43636.56;5092704;28;20296;-59
2023/08/27 09:29:57;;;;;;;18.70;17.70;;;;;;;-141.02;50.73;43469.50;5092516;28;20284;-59
2023/08/27 09:32:24;;;;;;;18.58;17.58;;;;;;;-141.02;51.06;43411.91;5092395;28;20197;-63
2023/08/27 09:34:58;;;;;;;18.50;17.50;;;;;;;-141.02;49.68;43644.25;5092632;28;20202;-58
2023/08/27 09:37:27;;;;;;;18.35;17.35;;;;;;;-141.02;49.22;43792.09;5092535;28;20214;-67
2023/08/27 09:39:55;;;;;;;18.10;17.10;;;;;;;-141.02;48.82;43653.84;5092474;28;20201;-64
2023/08/27 09:42:22;;;;;;;18.15;17.15;;;;;;;-141.02;48.44;43749.88;5092220;28;20744;-62
2023/08/27 09:44:50;;;;;;;18.70;17.80;;;;;;;-141.02;48.18;43776.75;5092446;28;20292;-60
2023/08/27 09:47:29;;;;;;;19.00;18.10;;;;;;;-141.02;48.37;43673.06;5092154;28;20201;-60
2023/08/27 09:49:56;;;;;;;18.50;17.60;;;;;;;-141.02;48.18;43751.78;5092401;28;20644;-65
2023/08/27 09:52:24;;;;;;;18.25;17.38;;;;;;;-141.02;47.96;43746.03;5092126;28;20219;-61
2023/08/27 09:54:51;;;;;;;18.23;17.42;;;;;;;-141.02;49.05;43552.09;5092301;28;20193;-63
2023/08/27 09:57:19;;;;;;;18.40;17.50;;;;;;;-141.02;48.73;43482.94;5092293;28;20328;-62
2023/08/27 09:59:47;;;;;;;17.92;17.13;;;;;;;-141.02;48.88;43575.13;5091932;28;20233;-62
2023/08/27 10:02:14;;;;;;;17.88;17.08;;;;;;;-141.02;48.73;42766.81;5092291;28;20194;-61
2023/08/27 10:04:50;;;;;;;18.23;17.40;;;;;;;-141.02;49.80;43196.88;5091969;28;20289;-64
2023/08/27 10:07:18;;;;;;;18.13;17.33;;;;;;;-141.02;50.96;42851.28;5092121;28;20185;-62
2023/08/27 10:09:50;;;;;;;18.70;17.80;;;;;;;-141.02;51.00;42690.03;5092069;28;20660;-64
2023/08/27 10:12:18;;;;;;;18.60;17.70;;;;;;;-141.02;51.51;42908.88;5091889;28;20204;-59
2023/08/27 10:14:46;;;;;;;19.15;18.25;;;;;;;-141.02;52.15;42640.13;5092464;28;20280;-61
2023/08/27 10:17:15;;;;;;;18.88;17.98;;;;;;;-141.02;52.70;42640.13;5091737;28;20312;-63
2023/08/27 10:19:42;;;;;;;18.92;18.02;;;;;;;-141.02;54.18;42745.72;5095580;28;20284;-64
2023/08/27 10:22:11;;;;;;;19.13;18.17;;;;;;;-141.02;53.77;43127.75;5095882;28;20289;-61
2023/08/27 10:24:41;;;;;;;18.63;17.73;;;;;;;-141.02;52.21;43273.66;5096151;28;20213;-68
2023/08/27 10:27:08;;;;;;;18.80;17.90;;;;;;;-141.02;51.24;42757.22;5096147;28;20198;-66
2023/08/27 10:29:35;;;;;;;18.67;17.77;;;;;;;-141.02;49.23;42991.44;5095735;28;20193;-67
2023/08/27 10:32:03;;;;;;;19.00;18.10;;;;;;;-141.02;49.51;42778.34;5096071;28;20276;-67
2023/08/27 10:34:30;;;;;;;18.17;17.38;;;;;;;-141.02;48.85;43434.94;5095967;28;20198;-65
2023/08/27 10:37:05;;;;;;;18.45;17.55;;;;;;;-141.02;47.06;43513.69;5095913;28;20316;-63
2023/08/27 10:39:36;;;;;;;19.20;18.30;;;;;;;-141.02;45.95;43509.84;5095441;28;20221;-66
2023/08/27 10:42:04;;;;;;;18.67;17.77;;;;;;;-141.02;46.11;43434.94;5096126;28;20239;-65
2023/08/27 10:44:32;;;;;;;19.27;18.38;;;;;;;-141.02;45.28;43611.59;5095519;28;20253;-68
2023/08/27 10:47:09;;;;;;;20.65;19.40;;;;;;;-141.02;44.58;43630.81;5095751;28;20194;-68
2023/08/27 10:49:37;;;;;;;19.50;18.60;;;;;;;-141.02;43.95;43701.84;5095339;28;20694;-66
2023/08/27 10:52:14;;;;;;;18.95;18.05;;;;;;;-141.02;44.26;43669.22;5095613;28;20193;-68
2023/08/27 10:54:42;;;;;;;18.88;17.98;;;;;;;-141.02;44.60;43692.25;5095358;28;20272;-68
2023/08/27 10:57:21;;;;;;;18.50;17.70;;;;;;;-141.02;43.89;43765.22;5095134;28;20225;-68
2023/08/27 10:59:48;;;;;;;18.88;17.98;;;;;;;-141.02;44.07;43123.91;5095070;28;20232;-69
2023/08/27 11:02:16;;;;;;;18.65;17.75;;;;;;;-141.02;44.13;43281.34;5095115;28;20292;-64
2023/08/27 11:04:47;;;;;;;18.55;17.65;;;;;;;-141.02;45.60;42999.13;5095108;28;20691;-69
2023/08/27 11:07:15;;;;;;;18.92;18.02;;;;;;;-141.02;47.71;42801.38;5095078;28;20276;-65
2023/08/27 11:09:48;;;;;;;18.30;17.50;;;;;;;-141.02;48.29;42791.78;5095431;28;20194;-67